createdAt,value
2022-10-17T00:01:09.403Z,52.70
2022-10-17T00:03:39.034Z,53.10
2022-10-17T00:06:08.531Z,53.60
2022-10-17T00:08:37.490Z,53.80
2022-10-17T00:11:10.091Z,54.40
2022-10-17T00:13:38.100Z,53.00
2022-10-17T00:16:07.093Z,51.40
2022-10-17T00:18:35.034Z,50.00
2022-10-17T00:21:03.040Z,49.40
2022-10-17T00:23:31.209Z,49.30
2022-10-17T00:26:00.581Z,49.00
2022-10-17T00:28:30.024Z,48.30
2022-10-17T00:30:58.981Z,48.90
2022-10-17T00:33:27.140Z,48.70
2022-10-17T00:36:04.198Z,48.30
2022-10-17T00:38:32.151Z,47.90
2022-10-17T00:41:00.232Z,47.90
2022-10-17T00:43:29.891Z,47.60
2022-10-17T00:45:58.170Z,48.30
2022-10-17T00:48:26.904Z,49.10
2022-10-17T00:50:55.129Z,49.70
2022-10-17T00:53:23.084Z,49.80
2022-10-17T00:55:53.791Z,50.00
2022-10-17T00:58:22.595Z,49.10
2022-10-17T01:00:51.931Z,48.20
2022-10-17T01:03:19.969Z,47.80
2022-10-17T01:05:49.995Z,47.70
2022-10-17T01:08:19.142Z,47.20
2022-10-17T01:10:58.646Z,47.30
2022-10-17T01:13:34.959Z,48.30
2022-10-17T01:16:11.859Z,48.10
2022-10-17T01:18:52.398Z,47.90
2022-10-17T01:21:44.315Z,47.60
2022-10-17T01:24:55.670Z,48.30
2022-10-17T01:28:01.137Z,48.60
2022-10-17T01:30:57.711Z,49.40
2022-10-17T01:33:41.937Z,49.80
2022-10-17T01:36:13.580Z,49.20
2022-10-17T01:38:47.560Z,48.80
2022-10-17T01:41:25.217Z,48.30
2022-10-17T01:43:56.630Z,48.20
2022-10-17T01:46:29.676Z,47.90
2022-10-17T01:49:01.746Z,48.10
2022-10-17T01:51:32.854Z,49.00
2022-10-17T01:54:06.248Z,50.20
2022-10-17T01:56:37.477Z,51.00
2022-10-17T01:59:12.253Z,50.70
2022-10-17T02:01:43.583Z,50.20
2022-10-17T02:04:12.878Z,50.10
2022-10-17T02:06:40.942Z,51.50
2022-10-17T02:09:19.579Z,50.90
2022-10-17T02:12:04.818Z,49.80
2022-10-17T02:14:44.633Z,49.50
2022-10-17T02:17:28.055Z,49.70
2022-10-17T02:20:07.243Z,50.20
2022-10-17T02:22:40.814Z,50.20
2022-10-17T02:25:15.694Z,50.10
2022-10-17T02:27:49.499Z,50.10
2022-10-17T02:30:24.896Z,50.30
2022-10-17T02:32:59.864Z,51.30
2022-10-17T02:35:32.107Z,51.10
2022-10-17T02:38:01.761Z,51.60
2022-10-17T02:40:30.942Z,51.80
2022-10-17T02:43:00.855Z,50.70
2022-10-17T02:45:35.776Z,49.80
2022-10-17T02:48:10.473Z,48.90
2022-10-17T02:50:49.892Z,48.00
2022-10-17T02:53:25.932Z,47.60
2022-10-17T02:55:58.837Z,47.00
2022-10-17T02:58:30.568Z,47.20
2022-10-17T03:00:59.716Z,47.60
2022-10-17T03:03:32.478Z,47.10
2022-10-17T03:06:03.552Z,46.90
2022-10-17T03:08:31.629Z,47.50
2022-10-17T03:11:01.691Z,46.60
2022-10-17T03:13:33.022Z,46.90
2022-10-17T03:16:03.020Z,46.40
2022-10-17T03:18:32.385Z,47.20
2022-10-17T03:21:02.233Z,47.80
2022-10-17T03:23:30.192Z,48.20
2022-10-17T03:25:58.557Z,48.30
2022-10-17T03:28:26.575Z,48.10
2022-10-17T03:30:54.626Z,48.10
2022-10-17T03:33:22.959Z,48.60
2022-10-17T03:35:52.397Z,48.50
2022-10-17T03:38:20.733Z,48.90
2022-10-17T03:40:56.026Z,48.20
2022-10-17T03:43:24.101Z,47.60
2022-10-17T03:45:52.136Z,47.90
2022-10-17T03:48:20.647Z,48.50
2022-10-17T03:50:49.163Z,49.20
2022-10-17T03:53:18.573Z,49.80
2022-10-17T03:55:46.578Z,48.90
2022-10-17T03:58:14.912Z,48.40
2022-10-17T04:00:42.873Z,47.90
2022-10-17T04:03:16.276Z,47.80
2022-10-17T04:05:45.371Z,48.50
2022-10-17T04:08:13.358Z,48.20
2022-10-17T04:11:08.364Z,48.80
2022-10-17T04:13:37.344Z,48.50
2022-10-17T04:16:07.955Z,48.10
2022-10-17T04:18:40.704Z,48.50
2022-10-17T04:21:09.176Z,48.40
2022-10-17T04:23:38.169Z,48.80
2022-10-17T04:26:17.731Z,49.10
2022-10-17T04:28:45.649Z,50.20
2022-10-17T04:31:15.272Z,49.80
2022-10-17T04:34:02.945Z,49.80
2022-10-17T04:36:31.310Z,50.50
2022-10-17T04:39:01.686Z,51.60
2022-10-17T04:41:32.926Z,51.70
2022-10-17T04:44:00.978Z,51.80
2022-10-17T04:46:30.026Z,52.00
2022-10-17T04:48:58.568Z,52.60
2022-10-17T04:51:26.870Z,53.00
2022-10-17T04:54:30.064Z,53.20
2022-10-17T04:57:06.441Z,52.00
2022-10-17T04:59:34.720Z,50.80
2022-10-17T05:02:16.495Z,49.50
2022-10-17T05:04:44.584Z,49.30
2022-10-17T05:07:13.782Z,48.80
2022-10-17T05:09:49.346Z,47.70
2022-10-17T05:12:20.683Z,47.10
2022-10-17T05:14:49.665Z,46.80
2022-10-17T05:17:17.651Z,46.60
2022-10-17T05:19:45.715Z,47.20
2022-10-17T05:22:13.817Z,48.00
2022-10-17T05:24:43.113Z,48.10
2022-10-17T05:27:12.152Z,48.40
2022-10-17T05:29:41.771Z,47.70
2022-10-17T05:32:20.164Z,47.30
2022-10-17T05:34:49.424Z,47.10
2022-10-17T05:37:17.688Z,47.00
2022-10-17T05:39:51.585Z,46.80
2022-10-17T05:42:20.774Z,46.50
2022-10-17T05:44:50.433Z,46.70
2022-10-17T05:47:20.747Z,47.50
2022-10-17T05:49:52.234Z,47.60
2022-10-17T05:52:24.987Z,47.00
2022-10-17T05:55:08.450Z,47.40
2022-10-17T05:57:36.887Z,48.10
2022-10-17T06:00:10.834Z,48.50
2022-10-17T06:02:49.687Z,49.20
2022-10-17T06:05:19.816Z,49.10
2022-10-17T06:07:49.139Z,49.30
2022-10-17T06:10:18.567Z,49.30
2022-10-17T06:12:46.820Z,48.70
2022-10-17T06:15:17.746Z,49.10
2022-10-17T06:17:50.579Z,49.10
2022-10-17T06:20:18.593Z,49.30
2022-10-17T06:22:46.523Z,49.00
2022-10-17T06:25:22.589Z,48.70
2022-10-17T06:27:50.744Z,48.40
2022-10-17T06:30:20.081Z,48.10
2022-10-17T06:32:48.438Z,48.20
2022-10-17T06:35:17.202Z,47.90
2022-10-17T06:37:47.283Z,47.70
2022-10-17T06:40:16.937Z,47.60
2022-10-17T06:42:46.184Z,47.70
2022-10-17T06:45:41.019Z,47.80
2022-10-17T06:48:18.876Z,47.40
2022-10-17T06:51:07.006Z,48.80
2022-10-17T06:53:45.270Z,47.50
2022-10-17T06:56:48.414Z,47.50
2022-10-17T06:59:19.325Z,48.50
2022-10-17T07:02:02.043Z,48.00
2022-10-17T07:04:31.088Z,47.40
2022-10-17T07:09:35.972Z,46.50
2022-10-17T07:12:06.738Z,47.00
2022-10-17T07:14:34.810Z,47.60
2022-10-17T07:17:04.771Z,46.80
2022-10-17T07:19:34.382Z,46.70
2022-10-17T07:22:02.407Z,47.00
2022-10-17T07:24:31.682Z,47.10
2022-10-17T07:27:08.456Z,46.50
2022-10-17T07:29:36.717Z,46.20
2022-10-17T07:32:17.573Z,45.70
2022-10-17T07:34:46.100Z,46.50
2022-10-17T07:37:14.102Z,45.80
2022-10-17T07:39:48.373Z,45.60
2022-10-17T07:42:17.105Z,45.50
2022-10-17T07:44:47.361Z,45.70
2022-10-17T07:47:16.692Z,45.70
2022-10-17T07:49:45.539Z,42.50
2022-10-17T07:52:14.334Z,42.60
2022-10-17T07:54:42.902Z,43.50
2022-10-17T07:57:11.138Z,44.10
2022-10-17T08:10:56.977Z,43.30
2022-10-17T08:13:25.697Z,43.40
2022-10-17T08:15:53.675Z,44.40
2022-10-17T08:18:21.614Z,42.60
2022-10-17T08:20:49.812Z,43.50
2022-10-17T08:23:17.833Z,43.20
2022-10-17T08:25:45.867Z,43.60
2022-10-17T08:28:16.157Z,42.70
2022-10-17T08:30:44.134Z,42.20
2022-10-17T08:33:12.094Z,42.10
2022-10-17T08:35:40.050Z,42.10
2022-10-17T08:38:10.008Z,41.70
2022-10-17T08:40:42.772Z,41.60
2022-10-17T08:43:35.400Z,41.40
2022-10-17T08:46:06.073Z,41.50
2022-10-17T08:48:37.875Z,41.80
2022-10-17T08:51:13.907Z,41.20
2022-10-17T08:53:49.264Z,40.60
2022-10-17T08:56:24.997Z,40.50
2022-10-17T08:59:13.323Z,40.50
2022-10-17T09:01:46.999Z,40.40
2022-10-17T09:04:46.324Z,40.50
2022-10-17T09:07:20.956Z,40.60
2022-10-17T09:09:58.000Z,41.30
2022-10-17T09:12:32.787Z,41.00
2022-10-17T09:15:25.447Z,41.50
2022-10-17T09:17:57.095Z,39.60
2022-10-17T09:20:27.983Z,41.30
2022-10-17T09:22:59.153Z,40.70
2022-10-17T09:25:28.445Z,40.10
2022-10-17T09:28:05.263Z,40.50
2022-10-17T09:30:45.510Z,39.00
2022-10-17T09:33:28.361Z,39.20
2022-10-17T09:36:05.440Z,41.10
2022-10-17T09:38:40.166Z,41.30
2022-10-17T09:44:15.838Z,40.10
2022-10-17T09:47:01.961Z,39.80
2022-10-17T09:49:36.034Z,40.30
2022-10-17T09:52:07.017Z,40.10
2022-10-17T09:54:43.057Z,39.80
2022-10-17T09:57:12.931Z,38.90
2022-10-17T09:59:43.558Z,38.80
2022-10-17T10:02:19.498Z,38.50
2022-10-17T10:05:04.088Z,38.50
2022-10-17T10:07:34.526Z,38.50
2022-10-17T10:10:03.779Z,38.40
2022-10-17T10:12:33.915Z,38.00
2022-10-17T10:15:01.880Z,38.00
2022-10-17T10:17:38.174Z,38.70
2022-10-17T10:20:27.872Z,37.60
2022-10-17T10:23:13.392Z,38.30
2022-10-17T10:25:52.593Z,38.30
2022-10-17T10:28:21.951Z,37.90
2022-10-17T10:30:52.265Z,37.80
2022-10-17T10:33:22.864Z,37.30
2022-10-17T10:35:57.573Z,37.60
2022-10-17T10:38:25.761Z,39.20
2022-10-17T10:40:56.161Z,37.70
2022-10-17T10:43:34.162Z,38.30
2022-10-17T10:46:17.193Z,38.70
2022-10-17T10:48:55.142Z,37.20
2022-10-17T10:51:28.338Z,37.90
2022-10-17T10:54:01.749Z,37.00
2022-10-17T10:56:34.016Z,36.40
2022-10-17T10:59:05.610Z,37.70
2022-10-17T11:01:40.293Z,38.00
2022-10-17T11:04:20.516Z,37.20
2022-10-17T11:06:51.070Z,37.20
2022-10-17T11:09:32.952Z,37.90
2022-10-17T11:12:08.517Z,37.90
2022-10-17T11:14:44.942Z,37.40
2022-10-17T11:17:22.697Z,37.60
2022-10-17T11:20:01.955Z,38.10
2022-10-17T11:22:33.267Z,37.10
2022-10-17T11:25:06.653Z,37.70
2022-10-17T11:27:36.107Z,38.00
2022-10-17T11:30:05.483Z,37.30
2022-10-17T11:32:40.001Z,37.20
2022-10-17T11:35:19.231Z,37.40
2022-10-17T11:37:50.931Z,36.60
2022-10-17T11:40:26.165Z,36.60
2022-10-17T11:43:00.107Z,37.30
2022-10-17T11:45:34.616Z,36.90
2022-10-17T11:48:06.647Z,37.50
2022-10-17T11:53:30.042Z,37.80
2022-10-17T11:56:01.195Z,39.50
2022-10-17T11:58:38.483Z,38.40
2022-10-17T12:01:16.729Z,38.00
2022-10-17T12:03:53.921Z,38.00
2022-10-17T12:06:43.478Z,39.50
2022-10-17T12:09:19.501Z,36.60
2022-10-17T12:11:54.028Z,37.20
2022-10-17T12:14:43.143Z,37.50
2022-10-17T12:17:29.238Z,36.40
2022-10-17T12:20:25.189Z,37.40
2022-10-17T12:22:56.197Z,38.30
2022-10-17T12:25:29.800Z,37.40
2022-10-17T12:28:14.658Z,37.10
2022-10-17T12:30:55.210Z,38.10
2022-10-17T12:33:26.812Z,38.00
2022-10-17T12:36:33.665Z,37.30
2022-10-17T12:39:49.333Z,37.60
2022-10-17T12:42:51.196Z,37.00
2022-10-17T12:45:48.467Z,37.30
2022-10-17T12:48:49.745Z,37.30
2022-10-17T12:51:36.392Z,36.30
2022-10-17T12:54:13.077Z,37.30
2022-10-17T12:56:43.257Z,35.90
2022-10-17T12:59:17.563Z,35.50
2022-10-17T13:01:48.412Z,36.30
2022-10-17T13:04:17.185Z,37.20
2022-10-17T13:06:48.895Z,37.20
2022-10-17T13:09:23.890Z,37.00
2022-10-17T13:11:52.939Z,37.20
2022-10-17T13:14:23.852Z,36.80
2022-10-17T13:16:54.320Z,36.20
2022-10-17T13:19:27.171Z,35.60
2022-10-17T13:21:59.866Z,36.60
2022-10-17T13:24:31.876Z,36.60
2022-10-17T13:27:00.585Z,36.10
2022-10-17T13:29:32.820Z,35.80
2022-10-17T13:32:03.824Z,36.60
2022-10-17T13:34:33.456Z,36.20
2022-10-17T13:37:03.898Z,36.70
2022-10-17T13:39:52.788Z,35.70
2022-10-17T13:42:26.098Z,36.40
2022-10-17T13:44:55.979Z,36.80
2022-10-17T13:47:25.796Z,36.10
2022-10-17T13:49:55.687Z,37.50
2022-10-17T13:52:27.432Z,36.80
2022-10-17T13:54:56.591Z,37.30
2022-10-17T13:57:26.382Z,36.90
2022-10-17T13:59:58.771Z,37.30
2022-10-17T14:02:29.088Z,37.20
2022-10-17T14:05:22.936Z,37.10
2022-10-17T14:10:44.176Z,36.20
2022-10-17T14:13:21.923Z,35.90
2022-10-17T14:15:52.068Z,36.40
2022-10-17T14:18:22.771Z,37.00
2022-10-17T14:23:44.120Z,36.90
2022-10-17T14:26:16.705Z,37.20
2022-10-17T14:28:46.113Z,37.80
2022-10-17T14:31:21.898Z,38.10
2022-10-17T14:33:51.607Z,38.60
2022-10-17T14:36:20.968Z,39.30
2022-10-17T14:38:51.385Z,39.70
2022-10-17T14:44:26.594Z,39.70
2022-10-17T14:47:05.932Z,40.80
2022-10-17T14:49:40.367Z,40.80
2022-10-17T14:52:30.077Z,41.40
2022-10-17T14:54:59.717Z,41.00
2022-10-17T14:57:41.311Z,41.20
2022-10-17T15:00:16.638Z,41.20
2022-10-17T15:02:46.896Z,41.60
2022-10-17T15:05:17.699Z,42.30
2022-10-17T15:07:45.691Z,42.50
2022-10-17T15:10:27.021Z,42.60
2022-10-17T15:12:59.115Z,42.70
2022-10-17T15:15:33.158Z,43.10
2022-10-17T15:18:02.792Z,43.30
2022-10-17T15:20:31.234Z,43.60
2022-10-17T15:23:01.544Z,43.80
2022-10-17T15:25:31.252Z,44.00
2022-10-17T15:28:00.055Z,44.20
2022-10-17T15:30:30.256Z,45.00
2022-10-17T15:32:58.460Z,44.80
2022-10-17T15:35:28.816Z,45.20
2022-10-17T15:37:59.845Z,45.50
2022-10-17T15:40:29.444Z,45.60
2022-10-17T15:42:58.123Z,46.10
2022-10-17T15:45:26.249Z,46.50
2022-10-17T15:47:56.817Z,46.30
2022-10-17T15:50:24.764Z,46.50
2022-10-17T15:52:54.059Z,47.10
2022-10-17T15:55:22.008Z,47.50
2022-10-17T15:57:50.502Z,47.90
2022-10-17T16:00:20.231Z,48.60
2022-10-17T16:02:49.226Z,48.50
2022-10-17T16:05:23.082Z,48.50
2022-10-17T16:07:51.102Z,48.80
2022-10-17T16:10:21.134Z,49.30
2022-10-17T16:12:50.156Z,49.60
2022-10-17T16:15:22.491Z,49.70
2022-10-17T16:17:50.535Z,49.60
2022-10-17T16:20:18.735Z,49.50
2022-10-17T16:22:47.433Z,49.80
2022-10-17T16:25:22.441Z,49.80
2022-10-17T16:27:52.959Z,50.00
2022-10-17T16:32:50.744Z,50.10
2022-10-17T16:35:21.047Z,49.70
2022-10-17T16:37:49.494Z,49.60
2022-10-17T16:40:21.786Z,49.50
2022-10-17T16:42:49.765Z,49.70
2022-10-17T16:45:19.146Z,50.00
2022-10-17T16:47:47.876Z,50.60
2022-10-17T16:50:16.694Z,50.80
2022-10-17T16:52:44.923Z,50.30
2022-10-17T16:55:12.912Z,50.30
2022-10-17T17:00:18.160Z,51.10
2022-10-17T17:02:48.694Z,51.10
2022-10-17T17:05:16.867Z,51.50
2022-10-17T17:07:44.848Z,51.50
2022-10-17T17:10:12.803Z,51.90
2022-10-17T17:12:42.090Z,52.00
2022-10-17T17:15:11.861Z,51.70
2022-10-17T17:17:56.355Z,52.10
2022-10-17T17:20:25.134Z,52.30
2022-10-17T17:22:55.887Z,52.10
2022-10-17T17:25:24.128Z,51.80
2022-10-17T17:27:53.431Z,51.40
2022-10-17T17:30:21.360Z,51.40
2022-10-17T17:32:49.321Z,50.40
2022-10-17T17:35:20.096Z,49.60
2022-10-17T17:37:48.046Z,49.00
2022-10-17T17:40:16.151Z,48.40
2022-10-17T17:42:44.235Z,48.50
2022-10-17T17:45:13.917Z,49.20
2022-10-17T17:47:41.894Z,49.80
2022-10-17T17:50:10.275Z,50.90
2022-10-17T17:52:40.184Z,52.40
2022-10-17T17:55:09.025Z,53.10
2022-10-17T17:57:38.554Z,52.70
2022-10-17T18:00:07.570Z,53.20
2022-10-17T18:02:39.628Z,53.60
2022-10-17T18:05:11.639Z,54.80
2022-10-17T18:07:39.719Z,55.30
2022-10-17T18:10:09.045Z,55.10
2022-10-17T18:12:39.879Z,55.00
2022-10-17T18:15:08.903Z,54.90
2022-10-17T18:17:39.646Z,54.90
2022-10-17T18:20:08.165Z,54.30
2022-10-17T18:22:36.644Z,54.70
2022-10-17T18:25:05.578Z,54.90
2022-10-17T18:27:33.516Z,55.30
2022-10-17T18:30:01.467Z,54.90
2022-10-17T18:32:31.851Z,55.00
2022-10-17T18:35:01.439Z,54.60
2022-10-17T18:37:29.430Z,54.70
2022-10-17T18:39:57.446Z,54.30
2022-10-17T18:42:25.569Z,54.00
2022-10-17T18:44:55.119Z,53.60
2022-10-17T18:47:23.120Z,53.00
2022-10-17T18:49:51.077Z,53.00
2022-10-17T18:52:20.409Z,52.90
2022-10-17T18:54:48.419Z,52.40
2022-10-17T18:57:16.779Z,52.50
2022-10-17T18:59:44.777Z,53.30
2022-10-17T19:02:13.870Z,54.10
2022-10-17T19:04:41.885Z,54.80
2022-10-17T19:07:10.976Z,55.00
2022-10-17T19:09:40.276Z,54.40
2022-10-17T19:12:08.222Z,53.30
2022-10-17T19:14:38.382Z,52.50
2022-10-17T19:17:06.351Z,50.70
2022-10-17T19:19:38.699Z,50.50
2022-10-17T19:22:06.649Z,50.50
2022-10-17T19:24:34.583Z,49.90
2022-10-17T19:27:05.163Z,49.60
2022-10-17T19:29:33.906Z,49.60
2022-10-17T19:32:02.547Z,50.10
2022-10-17T19:34:30.606Z,50.70
2022-10-17T19:36:59.395Z,51.40
2022-10-17T19:39:27.384Z,51.80
2022-10-17T19:41:55.766Z,52.30
2022-10-17T19:44:25.253Z,51.80
2022-10-17T19:46:53.293Z,51.00
2022-10-17T19:49:21.414Z,50.10
2022-10-17T19:51:49.416Z,50.30
2022-10-17T19:54:20.238Z,49.80
2022-10-17T19:56:48.275Z,50.40
2022-10-17T19:59:17.582Z,50.00
2022-10-17T20:01:49.910Z,50.80
2022-10-17T20:04:18.239Z,50.80
2022-10-17T20:06:47.803Z,50.70
2022-10-17T20:09:17.227Z,50.10
2022-10-17T20:11:46.112Z,50.20
2022-10-17T20:14:14.447Z,50.40
2022-10-17T20:16:44.603Z,50.90
2022-10-17T20:19:14.604Z,52.10
2022-10-17T20:21:44.386Z,52.50
2022-10-17T20:24:17.075Z,52.60
2022-10-17T20:26:46.012Z,52.80
2022-10-17T20:29:21.007Z,52.70
2022-10-17T20:31:49.728Z,53.10
2022-10-17T20:34:20.449Z,53.50
2022-10-17T20:36:48.861Z,54.20
2022-10-17T20:39:18.678Z,53.70
2022-10-17T20:41:47.327Z,53.60
2022-10-17T20:44:18.164Z,53.60
2022-10-17T20:47:00.837Z,53.30
2022-10-17T20:49:32.008Z,53.00
2022-10-17T20:52:00.201Z,52.80
2022-10-17T20:54:28.712Z,52.60
2022-10-17T20:56:59.807Z,51.60
2022-10-17T20:59:30.530Z,50.00
2022-10-17T21:01:58.780Z,49.30
2022-10-17T21:04:45.305Z,48.60
2022-10-17T21:07:15.281Z,48.70
2022-10-17T21:09:43.418Z,48.50
2022-10-17T21:12:11.329Z,47.90
2022-10-17T21:14:39.320Z,48.10
2022-10-17T21:17:07.767Z,48.30
2022-10-17T21:19:38.186Z,48.80
2022-10-17T21:22:06.130Z,49.40
2022-10-17T21:24:35.676Z,50.30
2022-10-17T21:27:03.627Z,50.30
2022-10-17T21:29:31.665Z,50.90
2022-10-17T21:31:59.684Z,51.70
2022-10-17T21:34:28.701Z,52.50
2022-10-17T21:36:56.999Z,52.90
2022-10-17T21:39:25.082Z,53.40
2022-10-17T21:41:55.026Z,53.30
2022-10-17T21:44:24.626Z,53.50
2022-10-17T21:46:53.089Z,53.70
2022-10-17T21:49:23.456Z,54.60
2022-10-17T21:51:52.665Z,54.80
2022-10-17T21:54:22.849Z,55.10
2022-10-17T21:56:51.288Z,55.40
2022-10-17T21:59:20.585Z,54.90
2022-10-17T22:01:48.576Z,54.60
2022-10-17T22:04:18.834Z,55.10
2022-10-17T22:06:50.932Z,54.80
2022-10-17T22:09:21.609Z,55.10
2022-10-17T22:11:51.843Z,55.10
2022-10-17T22:14:23.046Z,55.40
2022-10-17T22:16:51.483Z,54.70
2022-10-17T22:19:21.564Z,54.90
2022-10-17T22:21:50.094Z,54.80
2022-10-17T22:24:19.374Z,55.30
2022-10-17T22:26:48.420Z,55.30
2022-10-17T22:29:16.604Z,55.80
2022-10-17T22:31:45.987Z,56.20
2022-10-17T22:34:15.512Z,55.50
2022-10-17T22:36:43.947Z,55.60
2022-10-17T22:39:12.225Z,56.30
2022-10-17T22:41:40.334Z,56.10
2022-10-17T22:44:08.450Z,55.70
2022-10-17T22:46:36.729Z,55.10
2022-10-17T22:49:06.089Z,55.00
2022-10-17T22:51:34.012Z,55.30
2022-10-17T22:54:02.062Z,55.20
2022-10-17T22:56:30.019Z,55.30
2022-10-17T22:58:57.919Z,55.60
2022-10-17T23:01:26.889Z,55.60
2022-10-17T23:03:55.067Z,55.00
2022-10-17T23:06:24.410Z,55.00
2022-10-17T23:08:52.687Z,54.70
2022-10-17T23:11:21.170Z,55.10
2022-10-17T23:13:49.409Z,55.00
2022-10-17T23:16:17.480Z,54.50
2022-10-17T23:18:45.421Z,54.20
2022-10-17T23:21:13.495Z,52.40
2022-10-17T23:23:42.755Z,52.70
2022-10-17T23:26:13.775Z,52.70
2022-10-17T23:28:42.964Z,52.90
2022-10-17T23:31:13.264Z,52.80
2022-10-17T23:33:41.655Z,52.80
2022-10-17T23:36:10.724Z,52.50
2022-10-17T23:38:39.225Z,52.30
2022-10-17T23:41:08.942Z,52.70
2022-10-17T23:43:37.213Z,52.80
2022-10-17T23:46:06.595Z,51.70
2022-10-17T23:48:34.995Z,51.20
2022-10-17T23:51:02.933Z,50.30
2022-10-17T23:53:30.938Z,49.50
2022-10-17T23:55:58.980Z,49.90
2022-10-17T23:58:28.483Z,49.20
